Portada
METAR-TAF:

METAR-TAF

Aeroports :

Bodensee

Friedrichshafen, Alemanya

latitud: 47-40N, longitud: 009-31E, altitud: 416 m

Observació

L'informe es va fer fa 21 minuts, a les 20:20 UTC
Vent 8 kt del Nord/Nord-Est
Temperatura 18°C
Humitat 45%
Pressió 1018 hPa
Visibilitat 10 km o més

METAR: EDNY 012020Z AUTO 02008KT 9999 // NCD 18/06 Q1018

Hora: 22:41 (20:41 UTC)

Pronòstic

L'informe es va fer fa 3 hores i 41 minuts, a les 17:00 UTC
Pronòstic vàlid del 01 a les 18 UTC al 02 a les 18 UTC
Vent 5 kt del Nord-Est
Visibilitat 10 km o més
sense núvols per sota de 1500 mi sense presència de cumulonimbus.

TAF: EDNY 011700Z 0118/0218 04005KT CAVOK

Observacions i pronòstics meteorològics de més de 4000 aeroports (METAR i TAF).

Les estacions disponibles són els punts grocs i vermells al mapa.

Posi el ratolí al punt desitjat per veure el nom de l'estació.

Feu clic per veure les observacions i els pronòstics meteorològics.

Per canviar el mapa: feu clic els botons verds amb una creu de color negre per apropar; al botó verd amb un guió per allunyar la imatge; o en les fletxes verdes per a mapes adjacents.


METAR-TAF: